Time;durP1;ratioP1;P1;durP2;ratioP2;P2;SDS_P1;SDS_P2;PMS_P1;PMS_P2;Temp;Humidity;BMP_temperature;BMP_pressure;BME280_temperature;BME280_humidity;BME280_pressure;Samples;Min_cycle;Max_cycle;Signal;HPM_P1;HPM_P2
2022/05/12 00:00:26;;;;;;;11.73;3.30;;;13.90;99.90;;;;;;5064656;28;20694;-74
2022/05/12 00:02:54;;;;;;;9.97;3.37;;;13.80;99.90;;;;;;5048943;28;20190;-74
2022/05/12 00:05:21;;;;;;;7.70;2.77;;;13.80;99.90;;;;;;5031881;28;20191;-73
2022/05/12 00:07:48;;;;;;;10.43;2.57;;;13.80;99.90;;;;;;5074203;28;20194;-73
2022/05/12 00:10:24;;;;;;;15.50;3.67;;;13.80;99.90;;;;;;5049953;28;20186;-73
2022/05/12 00:12:52;;;;;;;18.83;3.40;;;13.80;99.90;;;;;;5044310;28;20202;-73
2022/05/12 00:15:23;;;;;;;12.07;2.93;;;13.70;99.90;;;;;;5037776;28;20666;-74
2022/05/12 00:17:50;;;;;;;9.60;3.00;;;13.60;99.90;;;;;;5063674;28;20247;-73
2022/05/12 00:20:22;;;;;;;14.33;2.87;;;13.60;99.90;;;;;;5049700;28;20214;-74
2022/05/12 00:22:48;;;;;;;12.30;3.00;;;13.70;99.90;;;;;;5061115;28;20794;-73
2022/05/12 00:25:33;;;;;;;12.53;3.27;;;13.60;99.90;;;;;;5059534;28;20182;-74
2022/05/12 00:28:00;;;;;;;13.20;3.27;;;13.60;99.90;;;;;;5062361;28;20290;-73
2022/05/12 00:30:26;;;;;;;9.07;2.97;;;13.70;99.90;;;;;;5067295;28;20218;-73
2022/05/12 00:32:52;;;;;;;8.30;3.00;;;13.70;99.90;;;;;;5064216;28;20679;-73
2022/05/12 00:35:19;;;;;;;10.77;3.20;;;13.60;99.90;;;;;;5043185;28;20199;-74
2022/05/12 00:37:46;;;;;;;13.30;3.30;;;13.60;99.90;;;;;;5050684;28;20182;-74
2022/05/12 00:40:16;;;;;;;10.57;3.57;;;13.60;99.90;;;;;;5066825;28;20273;-74
2022/05/12 00:43:33;;;;;;;12.37;3.33;;;13.60;99.90;;;;;;5058248;28;20214;-73
2022/05/12 00:46:13;;;;;;;9.43;3.10;;;13.50;99.90;;;;;;5059706;28;20198;-73
2022/05/12 00:48:42;;;;;;;10.53;3.00;;;13.50;99.90;;;;;;5062487;28;20187;-73
2022/05/12 00:51:21;;;;;;;9.40;2.83;;;13.50;99.90;;;;;;5061331;28;21081;-74
2022/05/12 00:53:51;;;;;;;7.90;2.70;;;13.50;99.90;;;;;;5045635;28;22030;-73
2022/05/12 00:56:23;;;;;;;12.80;3.30;;;13.50;99.90;;;;;;5055267;28;20290;-74
2022/05/12 00:58:57;;;;;;;10.00;3.17;;;13.50;99.90;;;;;;5065157;28;20662;-73
2022/05/12 01:01:24;;;;;;;9.03;3.10;;;13.50;99.90;;;;;;5062230;28;20705;-73
2022/05/12 01:03:54;;;;;;;12.10;3.30;;;13.40;99.90;;;;;;5045309;28;20352;-73
2022/05/12 01:06:21;;;;;;;12.10;3.40;;;13.40;99.90;;;;;;5025570;28;20241;-73
2022/05/12 01:08:47;;;;;;;9.20;3.57;;;13.40;99.90;;;;;;5059435;28;20215;-73
2022/05/12 01:11:18;;;;;;;6.93;2.77;;;13.40;99.90;;;;;;5026309;28;20214;-73
2022/05/12 01:13:52;;;;;;;14.23;3.53;;;13.40;99.90;;;;;;5061259;28;20233;-73
2022/05/12 01:16:45;;;;;;;11.57;4.00;;;13.40;99.90;;;;;;5065327;28;20602;-74
2022/05/12 01:19:24;;;;;;;11.80;3.27;;;13.40;99.90;;;;;;5046960;28;20658;-73
2022/05/12 01:21:52;;;;;;;11.03;3.00;;;13.40;99.90;;;;;;5045397;28;20291;-73
2022/05/12 01:24:24;;;;;;;10.57;3.27;;;13.40;99.90;;;;;;5063783;28;20715;-73
2022/05/12 01:26:51;;;;;;;6.80;2.70;;;13.40;99.90;;;;;;5062002;28;20210;-73
2022/05/12 01:29:18;;;;;;;11.83;3.20;;;13.40;99.90;;;;;;5070864;28;20190;-74
2022/05/12 02:15:57;;;;;;;13.47;5.13;;;13.80;99.90;;;;;;5066686;28;20194;-74
2022/05/12 02:18:29;;;;;;;14.37;5.50;;;13.80;99.90;;;;;;5061629;28;20195;-73
2022/05/12 02:20:58;;;;;;;14.57;5.67;;;13.80;99.90;;;;;;5049927;28;20329;-73
2022/05/12 02:23:24;;;;;;;16.37;5.27;;;13.70;99.90;;;;;;5061579;28;20186;-73
2022/05/12 02:25:50;;;;;;;13.53;5.87;;;13.70;99.90;;;;;;5065689;28;20194;-74
2022/05/12 02:28:17;;;;;;;11.80;5.30;;;13.70;99.90;;;;;;5068754;28;20543;-73
2022/05/12 02:30:44;;;;;;;13.47;6.07;;;13.70;99.90;;;;;;5062280;28;20191;-73
2022/05/12 02:33:11;;;;;;;17.43;5.80;;;13.70;99.90;;;;;;5065677;28;21088;-74
2022/05/12 02:35:41;;;;;;;15.60;5.97;;;13.70;99.90;;;;;;5042726;28;20218;-73
2022/05/12 02:38:09;;;;;;;13.40;5.53;;;13.70;99.90;;;;;;5060972;28;20200;-74
2022/05/12 02:40:36;;;;;;;10.07;5.33;;;13.70;99.90;;;;;;5065102;28;20263;-73
2022/05/12 02:43:02;;;;;;;13.70;5.30;;;13.70;99.90;;;;;;5046110;28;20282;-74
2022/05/12 02:45:29;;;;;;;13.93;5.90;;;13.70;99.90;;;;;;5065498;28;20248;-73
2022/05/12 02:47:57;;;;;;;14.43;5.60;;;13.60;99.90;;;;;;5049343;28;20644;-74
2022/05/12 02:50:24;;;;;;;20.07;6.63;;;13.60;99.90;;;;;;5064392;28;20202;-74
2022/05/12 02:52:51;;;;;;;13.30;5.53;;;13.50;99.90;;;;;;5041681;28;20201;-73
2022/05/12 02:55:18;;;;;;;13.50;5.90;;;13.50;99.90;;;;;;5058958;28;20199;-73
2022/05/12 02:57:44;;;;;;;16.33;6.10;;;13.50;99.90;;;;;;5055910;28;20265;-74
2022/05/12 03:00:16;;;;;;;15.47;5.67;;;13.50;99.90;;;;;;5065873;28;20298;-74
2022/05/12 03:02:48;;;;;;;12.20;5.23;;;13.50;99.90;;;;;;5066104;28;20726;-73
2022/05/12 03:05:15;;;;;;;12.10;5.50;;;13.60;99.90;;;;;;5067704;28;20179;-73
2022/05/12 03:07:45;;;;;;;17.27;6.40;;;13.60;99.90;;;;;;5055952;28;20183;-74
2022/05/12 03:10:13;;;;;;;14.13;5.80;;;13.60;99.90;;;;;;5064028;28;20187;-73
2022/05/12 03:12:39;;;;;;;11.50;5.67;;;13.50;99.90;;;;;;5062430;28;20194;-73
2022/05/12 03:15:07;;;;;;;15.07;5.63;;;13.50;99.90;;;;;;5063189;28;20647;-73
2022/05/12 03:17:35;;;;;;;17.00;5.50;;;13.50;99.90;;;;;;5057306;28;20199;-73
2022/05/12 03:20:09;;;;;;;19.60;5.27;;;13.60;99.90;;;;;;5065128;28;20223;-73
2022/05/12 03:22:36;;;;;;;10.73;4.73;;;13.60;99.90;;;;;;5061545;28;20512;-73
2022/05/12 03:25:11;;;;;;;13.97;5.03;;;13.60;99.90;;;;;;5042015;28;20198;-73
2022/05/12 03:27:42;;;;;;;12.07;4.83;;;13.60;99.90;;;;;;5059967;28;20187;-73
2022/05/12 03:30:15;;;;;;;11.50;4.40;;;13.60;99.90;;;;;;5047520;28;20281;-73
2022/05/12 03:32:43;;;;;;;14.63;5.23;;;13.70;99.90;;;;;;5069137;28;20214;-74
2022/05/12 03:35:11;;;;;;;13.07;4.50;;;13.70;99.90;;;;;;5070038;28;20639;-74
2022/05/12 03:37:39;;;;;;;12.03;4.57;;;13.80;99.90;;;;;;5071196;28;20636;-73
2022/05/12 03:40:09;;;;;;;10.93;4.40;;;13.80;99.90;;;;;;5057092;28;20559;-73
2022/05/12 03:42:38;;;;;;;10.00;4.10;;;13.80;99.90;;;;;;5063051;28;20179;-73
2022/05/12 03:45:06;;;;;;;10.10;3.70;;;13.80;99.90;;;;;;5059735;28;20574;-72
2022/05/12 03:47:39;;;;;;;11.00;3.80;;;13.80;99.90;;;;;;5058982;28;20699;-73
2022/05/12 03:50:16;;;;;;;11.30;4.30;;;13.80;99.90;;;;;;5060759;28;20650;-73
2022/05/12 03:52:43;;;;;;;11.50;3.83;;;13.80;99.90;;;;;;5061935;28;20186;-74
2022/05/12 03:55:12;;;;;;;13.73;3.87;;;13.80;99.90;;;;;;5058245;28;20237;-73
2022/05/12 03:57:40;;;;;;;9.90;4.03;;;13.70;99.90;;;;;;5059756;28;20195;-73
2022/05/12 04:00:14;;;;;;;11.53;4.00;;;13.70;99.90;;;;;;5056461;28;20734;-73
2022/05/12 04:02:40;;;;;;;10.73;3.40;;;13.70;99.90;;;;;;5060807;28;20269;-73
2022/05/12 04:05:08;;;;;;;10.50;3.80;;;13.70;99.90;;;;;;5049990;28;20667;-73
2022/05/12 04:07:34;;;;;;;10.73;3.67;;;13.70;99.90;;;;;;5069355;28;20516;-73
2022/05/12 04:10:01;;;;;;;8.57;3.80;;;13.70;99.90;;;;;;5045986;28;20192;-73
2022/05/12 04:12:28;;;;;;;10.33;4.37;;;13.80;99.90;;;;;;5048341;28;20290;-73
2022/05/12 04:14:54;;;;;;;12.57;3.77;;;13.80;99.90;;;;;;5049230;28;20179;-73
2022/05/12 04:17:20;;;;;;;11.93;3.30;;;13.80;99.90;;;;;;5065759;28;20190;-73
2022/05/12 04:19:50;;;;;;;12.60;3.70;;;13.90;99.90;;;;;;5056762;28;21113;-73
2022/05/12 04:22:17;;;;;;;11.50;4.07;;;13.90;99.90;;;;;;5047333;28;20969;-73
2022/05/12 04:24:47;;;;;;;11.17;3.83;;;13.90;99.90;;;;;;5049657;28;20210;-73
2022/05/12 04:27:14;;;;;;;8.80;3.93;;;14.00;99.90;;;;;;5058297;28;20187;-74
2022/05/12 04:29:42;;;;;;;15.77;4.43;;;14.00;99.90;;;;;;5076922;28;20186;-73
2022/05/12 04:32:10;;;;;;;14.70;4.20;;;14.00;99.90;;;;;;5076324;28;20210;-73
2022/05/12 04:37:32;;;;;;;13.47;4.60;;;14.20;99.90;;;;;;5056470;28;20195;-74
2022/05/12 04:40:16;;;;;;;10.57;4.50;;;14.30;99.90;;;;;;5058455;28;20244;-73
2022/05/12 04:42:43;;;;;;;10.37;4.10;;;14.30;99.90;;;;;;5044135;28;20270;-73
2022/05/12 04:45:11;;;;;;;9.03;4.03;;;14.40;99.90;;;;;;5057126;28;20252;-73
2022/05/12 04:47:40;;;;;;;14.83;4.30;;;14.50;99.90;;;;;;5064665;28;20293;-73
2022/05/12 04:50:17;;;;;;;11.83;4.03;;;14.50;99.90;;;;;;5063392;28;20195;-73
2022/05/12 04:52:48;;;;;;;12.73;4.70;;;14.60;99.90;;;;;;5049003;28;20248;-73
2022/05/12 04:55:17;;;;;;;16.27;5.33;;;14.60;99.90;;;;;;5055771;28;20195;-73
2022/05/12 04:57:47;;;;;;;8.67;3.63;;;14.70;99.90;;;;;;5049057;28;20708;-74
2022/05/12 05:00:21;;;;;;;9.03;4.53;;;14.70;99.90;;;;;;5062467;28;20218;-74
2022/05/12 05:02:48;;;;;;;14.00;5.00;;;14.80;99.90;;;;;;5067672;28;20213;-74
2022/05/12 05:05:18;;;;;;;14.43;4.67;;;14.90;99.90;;;;;;5041392;28;20195;-74
2022/05/12 05:07:45;;;;;;;11.90;5.00;;;15.00;99.90;;;;;;5045343;28;20187;-73
2022/05/12 05:10:15;;;;;;;14.10;4.87;;;15.00;99.90;;;;;;5059754;28;20648;-73
2022/05/12 05:12:42;;;;;;;12.70;5.07;;;15.00;99.90;;;;;;5077059;28;20275;-73
2022/05/12 05:15:15;;;;;;;12.97;4.30;;;15.10;99.90;;;;;;5061408;28;20190;-74
2022/05/12 05:17:42;;;;;;;12.10;5.00;;;15.20;99.90;;;;;;5045298;28;20190;-73
2022/05/12 05:20:29;;;;;;;15.73;5.00;;;15.30;99.90;;;;;;5060720;28;20233;-74
2022/05/12 05:22:58;;;;;;;11.07;4.40;;;15.30;99.90;;;;;;5060424;28;20192;-73
2022/05/12 05:25:25;;;;;;;12.80;4.70;;;15.40;99.90;;;;;;5046963;28;20318;-73
2022/05/12 05:28:02;;;;;;;11.17;4.10;;;15.40;99.90;;;;;;5046242;28;20613;-73
2022/05/12 05:30:30;;;;;;;11.40;4.57;;;15.40;99.90;;;;;;5055140;28;20202;-74
2022/05/12 05:32:58;;;;;;;12.70;4.37;;;15.50;99.90;;;;;;5062402;28;20206;-73
2022/05/12 05:35:27;;;;;;;8.47;3.90;;;15.50;99.90;;;;;;5036006;28;20301;-74
2022/05/12 05:37:54;;;;;;;9.70;3.97;;;15.60;99.90;;;;;;5060564;28;20190;-74
2022/05/12 05:40:28;;;;;;;12.23;4.40;;;15.70;99.90;;;;;;5060087;28;20250;-74
2022/05/12 05:42:56;;;;;;;13.03;3.77;;;15.80;99.90;;;;;;5026913;28;20719;-73
2022/05/12 05:45:24;;;;;;;10.67;3.80;;;15.90;99.90;;;;;;5054142;28;20590;-73
2022/05/12 05:47:58;;;;;;;9.83;3.53;;;16.10;99.90;;;;;;5028302;28;20179;-73
2022/05/12 05:53:30;;;;;;;9.10;3.43;;;16.20;99.90;;;;;;5051624;28;20690;-74
2022/05/12 05:56:03;;;;;;;9.27;3.80;;;16.30;99.90;;;;;;5049914;28;20221;-74
2022/05/12 05:58:33;;;;;;;10.37;3.57;;;16.30;99.90;;;;;;5058678;28;20190;-73
2022/05/12 06:01:00;;;;;;;11.53;3.30;;;16.40;99.90;;;;;;5077093;28;20279;-74
2022/05/12 06:03:27;;;;;;;9.77;3.20;;;16.50;99.90;;;;;;5061739;28;20302;-73
2022/05/12 06:05:54;;;;;;;10.60;3.83;;;16.60;99.90;;;;;;5067560;28;20195;-74
2022/05/12 06:08:21;;;;;;;11.00;3.33;;;16.70;99.90;;;;;;5062522;28;20673;-73
2022/05/12 06:10:47;;;;;;;14.13;3.87;;;16.80;99.90;;;;;;5063671;28;20217;-74
2022/05/12 06:13:15;;;;;;;12.17;3.67;;;16.90;99.90;;;;;;5066281;28;20302;-73
2022/05/12 06:15:43;;;;;;;8.93;3.37;;;17.00;99.90;;;;;;5076944;28;20187;-73
2022/05/12 06:18:15;;;;;;;11.43;3.57;;;17.10;99.90;;;;;;5055716;28;20291;-74
2022/05/12 06:20:45;;;;;;;14.93;3.77;;;17.20;99.90;;;;;;5056254;28;20274;-74
2022/05/12 06:23:13;;;;;;;10.47;3.60;;;17.30;99.90;;;;;;5023803;28;20268;-73
2022/05/12 06:25:41;;;;;;;5.67;3.20;;;17.40;99.90;;;;;;5052286;28;20203;-73
2022/05/12 06:28:10;;;;;;;12.53;3.43;;;17.50;99.90;;;;;;5056811;28;20213;-73
2022/05/12 06:30:43;;;;;;;10.03;3.97;;;17.50;99.90;;;;;;5036154;28;20206;-73
2022/05/12 06:33:17;;;;;;;10.93;3.33;;;17.70;99.90;;;;;;5023808;28;20195;-73
2022/05/12 06:35:45;;;;;;;12.40;3.40;;;17.90;99.90;;;;;;5055217;28;20281;-73
2022/05/12 06:38:11;;;;;;;8.63;3.30;;;17.90;99.90;;;;;;5051595;28;20188;-73
2022/05/12 06:40:39;;;;;;;9.87;3.50;;;17.90;99.90;;;;;;5058650;28;20210;-73
2022/05/12 06:43:08;;;;;;;10.50;3.03;;;18.00;99.90;;;;;;5070820;28;20187;-73
2022/05/12 06:45:36;;;;;;;10.37;3.27;;;18.10;99.90;;;;;;5065573;28;20194;-73
2022/05/12 06:48:09;;;;;;;11.53;3.30;;;18.20;99.90;;;;;;5068719;28;20194;-73
2022/05/12 06:50:37;;;;;;;9.93;3.20;;;18.30;99.90;;;;;;5026695;28;20202;-73
2022/05/12 06:53:05;;;;;;;7.00;2.83;;;18.50;99.90;;;;;;5047293;28;20196;-73
2022/05/12 06:55:33;;;;;;;9.00;3.23;;;18.60;99.90;;;;;;5067258;28;20194;-73
2022/05/12 06:58:00;;;;;;;9.57;3.30;;;18.60;99.90;;;;;;5059646;28;20190;-73
2022/05/12 07:00:27;;;;;;;10.60;3.40;;;18.70;99.90;;;;;;5068492;28;20268;-73
2022/05/12 07:02:55;;;;;;;9.13;3.03;;;18.70;99.90;;;;;;5067636;28;20190;-73
2022/05/12 07:05:27;;;;;;;11.20;2.97;;;18.90;99.90;;;;;;5056415;28;21000;-73
2022/05/12 07:07:58;;;;;;;14.00;2.97;;;19.00;99.90;;;;;;5053095;28;20214;-73
2022/05/12 07:10:29;;;;;;;10.27;3.30;;;19.00;99.90;;;;;;5042339;28;20213;-73
2022/05/12 07:12:56;;;;;;;11.93;3.67;;;19.20;99.90;;;;;;5037493;28;20308;-73
2022/05/12 07:15:28;;;;;;;10.87;3.50;;;19.40;99.90;;;;;;5040864;28;20963;-73
2022/05/12 07:18:00;;;;;;;9.57;3.03;;;19.50;99.90;;;;;;5038791;28;20195;-73
2022/05/12 07:28:45;;;;;;;12.50;3.13;;;19.80;99.90;;;;;;5039639;28;20187;-73
2022/05/12 07:31:13;;;;;;;14.73;3.10;;;19.80;99.90;;;;;;5042878;28;20289;-73
2022/05/12 07:33:47;;;;;;;11.87;3.63;;;19.90;99.90;;;;;;5044205;28;20198;-73
2022/05/12 07:36:21;;;;;;;9.70;3.23;;;20.00;99.90;;;;;;5046065;28;20213;-74
2022/05/12 07:38:48;;;;;;;9.97;3.50;;;20.20;99.90;;;;;;5075775;28;20209;-74
2022/05/12 07:41:17;;;;;;;11.80;3.40;;;20.30;99.90;;;;;;5063950;28;20210;-74
2022/05/12 07:43:45;;;;;;;15.60;3.83;;;20.30;99.90;;;;;;5050399;28;20224;-74
2022/05/12 07:46:17;;;;;;;12.30;3.20;;;20.30;99.90;;;;;;5058250;28;20282;-74
2022/05/12 07:48:44;;;;;;;10.27;3.23;;;20.40;99.90;;;;;;5065884;28;20187;-74
2022/05/12 07:51:12;;;;;;;22.73;4.10;;;20.40;99.90;;;;;;5054366;28;20186;-74
2022/05/12 07:53:39;;;;;;;18.07;3.50;;;20.50;99.90;;;;;;5039625;28;20667;-74
2022/05/12 07:56:08;;;;;;;12.40;3.53;;;20.50;99.90;;;;;;5054641;28;20218;-74
2022/05/12 07:58:36;;;;;;;10.73;3.00;;;20.70;99.90;;;;;;5052034;28;20194;-75
2022/05/12 08:01:03;;;;;;;14.93;3.57;;;20.70;99.90;;;;;;5065523;28;20689;-74
2022/05/12 08:03:29;;;;;;;19.10;3.60;;;20.80;99.90;;;;;;5067007;28;20183;-75
2022/05/12 08:06:00;;;;;;;12.73;3.53;;;20.70;99.90;;;;;;5057650;28;20190;-74
2022/05/12 08:08:27;;;;;;;17.10;3.87;;;20.80;99.90;;;;;;5048836;28;20178;-74
2022/05/12 08:10:54;;;;;;;25.87;4.10;;;20.90;99.90;;;;;;5070262;28;20188;-74
2022/05/12 08:13:25;;;;;;;14.20;3.57;;;21.00;99.90;;;;;;5066604;28;20647;-74
2022/05/12 08:15:53;;;;;;;11.10;3.33;;;21.10;99.90;;;;;;5040352;28;20252;-74
2022/05/12 08:18:25;;;;;;;15.10;3.37;;;21.20;99.90;;;;;;5059621;28;20191;-74
2022/05/12 08:20:53;;;;;;;17.20;3.80;;;21.20;99.90;;;;;;5049485;28;20219;-74
2022/05/12 08:23:19;;;;;;;14.37;3.47;;;21.30;99.90;;;;;;5059090;28;20535;-74
2022/05/12 08:25:48;;;;;;;14.90;3.73;;;21.30;99.90;;;;;;5028856;28;20179;-74
2022/05/12 08:28:18;;;;;;;14.80;3.30;;;21.40;99.90;;;;;;5059462;28;20194;-74
2022/05/12 08:30:46;;;;;;;10.53;3.30;;;21.40;99.90;;;;;;5049684;28;20200;-73
2022/05/12 08:33:13;;;;;;;12.13;3.30;;;21.50;99.90;;;;;;5064786;28;20223;-74
2022/05/12 08:35:42;;;;;;;13.70;2.80;;;21.50;99.90;;;;;;5063310;28;20186;-73
2022/05/12 08:38:10;;;;;;;13.67;3.80;;;21.70;99.90;;;;;;5048179;28;20845;-74
2022/05/12 08:41:09;;;;;;;9.87;2.80;;;21.80;99.90;;;;;;5068680;28;20240;-74
2022/05/12 08:43:54;;;;;;;11.80;3.17;;;21.90;99.90;;;;;;5063434;28;20435;-75
2022/05/12 08:46:37;;;;;;;14.07;3.50;;;21.90;99.90;;;;;;5051425;28;20187;-74
2022/05/12 08:49:32;;;;;;;11.55;3.13;;;22.10;99.90;;;;;;5051302;28;20196;-74
2022/05/12 08:52:31;;;;;;;13.43;3.50;;;22.10;99.90;;;;;;5062488;28;20190;-74
2022/05/12 08:55:31;;;;;;;16.70;3.70;;;22.20;99.90;;;;;;5062680;28;20197;-74
2022/05/12 08:58:20;;;;;;;9.70;3.30;;;22.30;99.90;;;;;;5048991;28;20194;-75
2022/05/12 09:01:00;;;;;;;19.33;4.37;;;22.30;99.90;;;;;;5047910;28;20563;-76
2022/05/12 09:03:50;;;;;;;42.10;5.10;;;22.50;99.90;;;;;;5065771;28;20194;-76
2022/05/12 09:06:30;;;;;;;51.75;6.55;;;22.60;99.90;;;;;;5057704;28;20569;-75
2022/05/12 09:09:40;;;;;;;22.00;4.18;;;22.70;99.90;;;;;;5071270;28;20196;-76
2022/05/12 09:12:44;;;;;;;14.98;3.50;;;22.80;99.90;;;;;;5027805;28;20313;-76
2022/05/12 09:15:41;;;;;;;13.23;3.53;;;22.80;99.90;;;;;;5063566;28;20717;-76
2022/05/12 09:18:22;;;;;;;16.75;4.20;;;22.90;99.90;;;;;;5026784;28;20186;-75
2022/05/12 09:20:48;;;;;;;20.65;3.97;;;23.10;99.90;;;;;;5039720;28;20199;-75
2022/05/12 09:23:18;;;;;;;17.05;3.70;;;23.20;99.90;;;;;;5055235;28;20539;-73
2022/05/12 09:25:48;;;;;;;49.20;5.40;;;23.30;99.90;;;;;;5066376;28;20648;-75
2022/05/12 09:28:37;;;;;;;22.73;4.10;;;23.30;99.90;;;;;;5054173;28;20225;-75
2022/05/12 09:31:15;;;;;;;15.98;4.15;;;23.30;99.90;;;;;;5060656;28;20556;-76
2022/05/12 09:33:43;;;;;;;19.05;3.50;;;23.20;99.90;;;;;;5053999;28;20183;-75
2022/05/12 09:36:26;;;;;;;13.73;3.20;;;23.40;99.90;;;;;;5059632;28;20190;-75
2022/05/12 09:38:58;;;;;;;10.95;3.25;;;23.60;99.90;;;;;;5055930;28;20182;-75
2022/05/12 09:41:50;;;;;;;18.52;3.78;;;23.60;99.90;;;;;;5055245;28;20241;-75
2022/05/12 09:44:30;;;;;;;15.57;3.90;;;23.70;99.90;;;;;;5066627;28;20192;-75
2022/05/12 09:47:12;;;;;;;14.75;3.83;;;23.80;99.90;;;;;;5041376;28;20180;-75
2022/05/12 09:49:46;;;;;;;16.13;3.72;;;23.90;99.90;;;;;;5065052;28;20245;-75
2022/05/12 09:52:31;;;;;;;15.35;3.28;;;24.00;99.90;;;;;;5026141;28;20307;-75
2022/05/12 09:55:24;;;;;;;19.30;3.90;;;24.00;99.90;;;;;;5056694;28;20192;-75
2022/05/12 09:58:16;;;;;;;12.80;3.50;;;23.70;99.90;;;;;;5079781;28;20195;-75
2022/05/12 10:01:11;;;;;;;11.45;3.95;;;23.40;99.90;;;;;;5059189;28;20832;-75
2022/05/12 10:10:24;;;;;;;10.57;3.53;;;23.20;99.90;;;;;;5058869;28;20214;-75
2022/05/12 10:13:37;;;;;;;14.13;3.70;;;23.20;99.90;;;;;;5055432;28;20242;-75
2022/05/12 10:16:06;;;;;;;11.63;3.70;;;23.20;99.90;;;;;;5057675;28;20277;-74
2022/05/12 10:19:03;;;;;;;9.35;3.38;;;23.50;99.90;;;;;;5044569;28;20222;-75
2022/05/12 10:22:07;;;;;;;10.10;3.35;;;23.80;99.90;;;;;;5042395;28;20219;-76
2022/05/12 10:24:59;;;;;;;16.80;3.72;;;23.90;99.90;;;;;;5061550;28;20325;-73
2022/05/12 10:28:44;;;;;;;61.13;5.90;;;23.90;99.90;;;;;;5062094;28;20195;-75
2022/05/12 10:31:39;;;;;;;42.95;5.30;;;23.80;99.90;;;;;;5026720;28;20222;-75
2022/05/12 10:34:55;;;;;;;16.08;4.35;;;23.80;99.90;;;;;;5042555;28;20631;-74
2022/05/12 10:38:00;;;;;;;13.23;3.28;;;23.60;99.90;;;;;;5069252;28;20198;-74
2022/05/12 10:40:43;;;;;;;15.20;3.72;;;23.50;99.90;;;;;;5061333;28;20747;-75
2022/05/12 10:43:21;;;;;;;10.75;4.03;;;23.50;99.90;;;;;;5050071;28;20179;-74
2022/05/12 10:46:13;;;;;;;17.48;3.45;;;23.50;99.90;;;;;;5070657;28;20186;-74
2022/05/12 10:49:03;;;;;;;11.00;3.10;;;23.50;99.90;;;;;;5037798;28;20274;-74
2022/05/12 10:52:07;;;;;;;12.30;3.42;;;23.50;99.90;;;;;;5042860;28;20569;-74
2022/05/12 10:55:05;;;;;;;12.52;3.25;;;23.50;99.90;;;;;;5055002;28;21980;-74
2022/05/12 10:57:52;;;;;;;17.77;3.80;;;23.50;99.90;;;;;;5052928;28;20243;-74
2022/05/12 11:00:48;;;;;;;9.25;3.63;;;23.40;99.90;;;;;;5027359;28;20271;-74
2022/05/12 11:03:34;;;;;;;14.75;3.33;;;23.50;99.90;;;;;;5046451;28;20282;-74
2022/05/12 11:06:08;;;;;;;16.83;3.40;;;23.30;99.90;;;;;;5051691;28;20191;-74
2022/05/12 11:08:56;;;;;;;19.15;3.72;;;23.20;99.90;;;;;;5070006;28;20190;-74
2022/05/12 11:11:33;;;;;;;13.70;3.92;;;23.10;99.90;;;;;;5042496;28;20251;-74
2022/05/12 11:14:31;;;;;;;12.35;3.53;;;23.20;99.90;;;;;;5055751;28;20202;-74
2022/05/12 11:17:09;;;;;;;17.25;3.67;;;23.20;99.90;;;;;;5070539;28;20187;-74
2022/05/12 11:19:42;;;;;;;15.83;3.53;;;23.20;99.90;;;;;;5050645;28;20274;-74
2022/05/12 11:22:29;;;;;;;13.93;3.60;;;23.10;99.90;;;;;;5059907;28;20287;-73
2022/05/12 11:25:37;;;;;;;12.88;3.78;;;23.00;99.90;;;;;;5047285;28;20218;-74
2022/05/12 11:31:37;;;;;;;15.45;3.00;;;22.90;99.90;;;;;;5047350;28;20232;-74
2022/05/12 11:34:09;;;;;;;8.07;3.08;;;23.00;99.90;;;;;;5066377;28;20199;-74
2022/05/12 11:36:47;;;;;;;14.43;3.92;;;23.00;99.90;;;;;;5061756;28;20517;-74
2022/05/12 11:39:56;;;;;;;11.57;3.38;;;23.10;99.90;;;;;;5070071;28;20191;-73
2022/05/12 11:46:32;;;;;;;20.75;3.83;;;23.20;99.90;;;;;;5059163;28;20195;-75
2022/05/12 11:49:25;;;;;;;11.85;3.22;;;23.40;99.90;;;;;;5050715;28;20283;-74
2022/05/12 11:52:08;;;;;;;14.38;3.72;;;23.30;99.90;;;;;;5062407;28;20292;-74
2022/05/12 11:54:47;;;;;;;11.82;3.42;;;23.20;99.90;;;;;;5065558;28;20179;-74
2022/05/12 11:57:43;;;;;;;12.13;3.65;;;23.10;99.90;;;;;;5063048;28;20245;-74
2022/05/12 12:00:36;;;;;;;14.13;3.58;;;23.00;99.90;;;;;;5071006;28;20217;-74
2022/05/12 12:03:22;;;;;;;16.48;3.25;;;23.10;99.90;;;;;;5050559;28;20210;-74
2022/05/12 12:05:48;;;;;;;17.13;3.85;;;23.10;99.90;;;;;;5059885;28;20179;-74
2022/05/12 12:08:41;;;;;;;37.45;5.32;;;22.90;99.90;;;;;;5054407;28;21352;-75
2022/05/12 12:11:14;;;;;;;20.75;3.60;;;22.90;99.90;;;;;;5061931;28;20214;-74
2022/05/12 12:13:43;;;;;;;14.48;3.75;;;22.90;99.90;;;;;;5065688;28;20282;-74
2022/05/12 12:16:13;;;;;;;14.82;3.47;;;22.90;99.90;;;;;;5073839;28;20209;-74
2022/05/12 12:18:39;;;;;;;10.68;3.47;;;22.90;99.90;;;;;;5059550;28;20188;-75
2022/05/12 12:21:42;;;;;;;10.88;2.92;;;22.90;99.90;;;;;;5044834;28;20220;-75
2022/05/12 12:24:27;;;;;;;15.63;3.57;;;23.00;99.90;;;;;;5052114;28;20178;-74
2022/05/12 12:27:26;;;;;;;12.77;4.25;;;22.90;99.90;;;;;;5080482;28;20190;-75
2022/05/12 12:29:55;;;;;;;12.30;3.17;;;22.90;99.90;;;;;;5070636;28;20191;-75
2022/05/12 12:32:27;;;;;;;17.95;3.53;;;22.90;99.90;;;;;;5055793;28;20210;-74
2022/05/12 12:35:05;;;;;;;10.30;4.13;;;22.80;99.90;;;;;;5045164;28;20179;-75
2022/05/12 12:37:46;;;;;;;15.13;2.97;;;22.70;99.90;;;;;;5045193;28;20190;-75
2022/05/12 12:40:30;;;;;;;9.98;3.28;;;22.70;99.90;;;;;;5048541;28;20181;-75
2022/05/12 12:43:13;;;;;;;10.60;3.13;;;22.70;99.90;;;;;;5032171;28;20282;-75
2022/05/12 12:45:53;;;;;;;14.50;3.00;;;22.70;99.90;;;;;;5043189;28;20183;-75
2022/05/12 12:48:34;;;;;;;12.38;3.22;;;22.60;99.90;;;;;;5042928;28;20736;-74
2022/05/12 12:51:01;;;;;;;12.05;3.20;;;22.50;99.90;;;;;;5047195;28;20191;-75
2022/05/12 12:56:30;;;;;;;12.05;3.92;;;22.50;99.90;;;;;;5053405;28;20206;-75
2022/05/12 12:59:12;;;;;;;10.33;3.27;;;22.50;99.90;;;;;;5061502;28;20799;-75
2022/05/12 13:01:50;;;;;;;9.57;3.20;;;22.40;99.90;;;;;;5068119;28;20229;-75
2022/05/12 13:04:37;;;;;;;14.73;3.87;;;22.30;99.90;;;;;;5063311;28;20191;-75
2022/05/12 13:07:08;;;;;;;14.30;3.47;;;22.40;99.90;;;;;;5061604;28;20190;-75
2022/05/12 13:09:42;;;;;;;126.63;10.33;;;22.40;99.90;;;;;;5065648;28;20195;-73
2022/05/12 13:12:19;;;;;;;35.30;4.87;;;22.40;99.90;;;;;;5055072;28;20279;-74
2022/05/12 13:14:50;;;;;;;18.90;3.58;;;22.50;99.90;;;;;;5042080;28;20348;-74
2022/05/12 13:17:38;;;;;;;15.83;3.47;;;22.50;99.90;;;;;;5065741;28;20203;-75
2022/05/12 13:20:18;;;;;;;13.20;3.67;;;22.50;99.90;;;;;;5075827;28;20199;-74
2022/05/12 13:23:26;;;;;;;17.80;4.47;;;22.50;99.90;;;;;;5066036;28;20195;-74
2022/05/12 13:25:54;;;;;;;12.50;3.00;;;22.50;99.90;;;;;;5059743;28;20186;-74
2022/05/12 13:28:30;;;;;;;13.37;3.60;;;22.60;99.90;;;;;;5047700;28;20623;-74
2022/05/12 13:31:23;;;;;;;23.80;3.53;;;22.60;99.90;;;;;;5029094;28;20183;-74
2022/05/12 13:34:26;;;;;;;16.73;3.73;;;22.70;99.90;;;;;;5069727;28;20920;-74
2022/05/12 13:36:58;;;;;;;12.00;3.88;;;22.70;99.90;;;;;;5036319;28;20197;-74
2022/05/12 13:39:49;;;;;;;12.10;3.83;;;22.60;99.90;;;;;;5045183;28;20210;-74
2022/05/12 13:42:49;;;;;;;13.90;3.10;;;22.60;99.90;;;;;;5033006;28;20226;-74
2022/05/12 13:45:27;;;;;;;13.00;3.20;;;22.60;99.90;;;;;;5039194;28;20214;-74
2022/05/12 13:47:56;;;;;;;8.03;2.90;;;22.60;99.90;;;;;;5059073;28;20262;-74
2022/05/12 13:50:52;;;;;;;12.90;3.70;;;22.50;99.90;;;;;;5052608;28;20275;-74
2022/05/12 13:53:30;;;;;;;13.63;3.65;;;22.50;99.90;;;;;;5041616;28;20192;-74
2022/05/12 13:56:28;;;;;;;11.35;3.58;;;22.40;99.90;;;;;;5056155;28;20236;-75
2022/05/12 13:59:29;;;;;;;13.43;3.50;;;22.30;99.90;;;;;;5047815;28;20240;-74
2022/05/12 14:02:26;;;;;;;10.68;3.42;;;22.20;99.90;;;;;;5064950;28;20256;-74
2022/05/12 14:05:11;;;;;;;12.77;3.50;;;22.10;99.90;;;;;;5062482;28;20188;-74
2022/05/12 14:07:40;;;;;;;14.20;4.10;;;22.10;99.90;;;;;;5046265;28;20243;-74
2022/05/12 14:10:40;;;;;;;17.13;3.70;;;22.10;99.90;;;;;;5057825;28;20670;-74
2022/05/12 14:19:42;;;;;;;13.23;3.43;;;22.10;99.90;;;;;;5068010;28;20222;-74
2022/05/12 14:22:18;;;;;;;16.00;3.70;;;22.10;99.90;;;;;;5067259;28;20211;-74
2022/05/12 14:24:47;;;;;;;12.73;3.67;;;22.10;99.90;;;;;;5060559;28;20268;-74
2022/05/12 14:27:17;;;;;;;13.03;3.77;;;22.00;99.90;;;;;;5048011;28;20189;-74
2022/05/12 14:29:44;;;;;;;15.80;3.80;;;22.00;99.90;;;;;;5068264;28;20188;-74
2022/05/12 14:32:14;;;;;;;19.03;3.80;;;21.90;99.90;;;;;;5058912;28;20211;-74
2022/05/12 14:34:44;;;;;;;8.90;3.23;;;21.80;99.90;;;;;;5042467;28;20215;-73
2022/05/12 14:37:10;;;;;;;14.68;3.72;;;21.70;99.90;;;;;;5061061;28;20180;-73
2022/05/12 14:39:37;;;;;;;18.33;4.47;;;21.60;99.90;;;;;;5068078;28;20185;-75
2022/05/12 14:42:07;;;;;;;13.13;4.00;;;21.50;99.90;;;;;;5045384;28;20678;-75